createdAt,value
2018-05-02T00:01:41.407Z,88.20
2018-05-02T00:04:10.427Z,88.30
2018-05-02T00:06:41.085Z,90.00
2018-05-02T00:09:09.788Z,90.00
2018-05-02T00:11:46.369Z,90.10
2018-05-02T00:14:15.394Z,90.20
2018-05-02T00:16:47.240Z,90.30
2018-05-02T00:19:16.590Z,88.30
2018-05-02T00:21:48.561Z,89.00
2018-05-02T00:24:17.847Z,89.30
2018-05-02T00:26:54.310Z,89.30
2018-05-02T00:29:23.177Z,89.80
2018-05-02T00:31:53.169Z,90.00
2018-05-02T00:34:21.942Z,90.00
2018-05-02T00:36:58.360Z,90.00
2018-05-02T00:39:27.896Z,90.30
2018-05-02T00:41:59.826Z,90.30
2018-05-02T00:44:28.539Z,90.70
2018-05-02T00:47:01.226Z,90.50
2018-05-02T00:49:30.528Z,90.70
2018-05-02T00:52:06.559Z,90.50
2018-05-02T00:54:35.361Z,90.50
2018-05-02T00:57:06.024Z,90.70
2018-05-02T00:59:34.777Z,90.70
2018-05-02T01:02:11.636Z,90.90
2018-05-02T01:04:41.234Z,90.90
2018-05-02T01:07:12.760Z,90.90
2018-05-02T01:09:41.578Z,90.90
2018-05-02T01:12:14.416Z,91.30
2018-05-02T01:14:43.637Z,91.30
2018-05-02T01:17:16.608Z,91.60
2018-05-02T01:19:45.381Z,91.60
2018-05-02T01:22:21.697Z,90.90
2018-05-02T01:24:50.428Z,90.60
2018-05-02T01:27:20.853Z,90.70
2018-05-02T01:29:50.243Z,90.80
2018-05-02T01:32:26.202Z,91.40
2018-05-02T01:34:54.931Z,91.80
2018-05-02T01:37:25.160Z,91.10
2018-05-02T01:39:54.606Z,91.50
2018-05-02T01:42:26.504Z,91.50
2018-05-02T01:44:55.563Z,91.10
2018-05-02T01:47:31.869Z,91.30
2018-05-02T01:50:01.381Z,91.10
2018-05-02T01:52:31.360Z,91.20
2018-05-02T01:55:00.115Z,91.20
2018-05-02T01:57:36.712Z,91.50
2018-05-02T02:00:05.579Z,91.10
2018-05-02T02:02:36.120Z,91.40
2018-05-02T02:05:05.190Z,91.30
2018-05-02T02:07:37.738Z,91.50
2018-05-02T02:10:07.362Z,91.50
2018-05-02T02:12:40.373Z,91.50
2018-05-02T02:15:09.224Z,92.10
2018-05-02T02:17:42.230Z,91.80
2018-05-02T02:20:12.285Z,91.80
2018-05-02T02:22:45.045Z,91.60
2018-05-02T02:25:14.568Z,91.70
2018-05-02T02:27:47.383Z,91.70
2018-05-02T02:30:16.115Z,92.10
2018-05-02T02:32:52.620Z,92.10
2018-05-02T02:35:21.496Z,91.70
2018-05-02T02:37:54.149Z,91.80
2018-05-02T02:40:23.266Z,91.80
2018-05-02T02:42:55.641Z,92.00
2018-05-02T02:45:25.152Z,91.90
2018-05-02T02:48:01.116Z,91.90
2018-05-02T02:50:29.809Z,92.10
2018-05-02T02:53:01.664Z,92.40
2018-05-02T02:55:30.465Z,92.30
2018-05-02T02:58:03.416Z,92.70
2018-05-02T03:00:32.968Z,92.50
2018-05-02T03:03:06.316Z,91.50
2018-05-02T03:05:35.491Z,91.40
2018-05-02T03:08:11.668Z,90.70
2018-05-02T03:10:40.336Z,91.10
2018-05-02T03:13:12.975Z,91.80
2018-05-02T03:15:42.439Z,90.90
2018-05-02T03:18:14.588Z,90.90
2018-05-02T03:20:43.362Z,90.70
2018-05-02T03:23:19.273Z,90.90
2018-05-02T03:25:48.261Z,91.20
2018-05-02T03:28:18.591Z,91.20
2018-05-02T03:30:47.511Z,90.90
2018-05-02T03:33:21.059Z,91.00
2018-05-02T03:35:50.632Z,91.10
2018-05-02T03:38:24.134Z,91.30
2018-05-02T03:40:53.345Z,91.30
2018-05-02T03:43:26.283Z,91.50
2018-05-02T03:45:55.078Z,91.40
2018-05-02T03:48:28.764Z,91.80
2018-05-02T03:50:57.974Z,91.90
2018-05-02T03:53:30.197Z,92.00
2018-05-02T03:55:59.308Z,92.30
2018-05-02T03:58:31.888Z,92.60
2018-05-02T04:03:15.489Z,92.00
2018-05-02T04:05:55.186Z,92.00
2018-05-02T04:08:24.054Z,92.00
2018-05-02T04:10:52.804Z,92.80
2018-05-02T04:13:21.631Z,92.30
2018-05-02T04:15:50.909Z,92.50
2018-05-02T04:18:20.429Z,91.90
2018-05-02T04:20:49.256Z,91.90
2018-05-02T04:23:18.480Z,92.30
2018-05-02T04:25:47.284Z,91.90
2018-05-02T04:28:16.065Z,91.50
2018-05-02T04:30:48.052Z,92.40
2018-05-02T04:33:16.977Z,91.40
2018-05-02T04:35:50.326Z,91.10
2018-05-02T04:38:19.377Z,91.10
2018-05-02T04:40:55.988Z,91.00
2018-05-02T04:43:24.782Z,90.90
2018-05-02T04:45:55.286Z,90.70
2018-05-02T04:48:24.157Z,90.80
2018-05-02T04:50:57.345Z,91.00
2018-05-02T04:53:26.443Z,91.10
2018-05-02T04:56:02.649Z,91.20
2018-05-02T04:58:31.456Z,90.80
2018-05-02T05:01:02.496Z,90.50
2018-05-02T05:03:31.284Z,90.70
2018-05-02T05:06:05.124Z,90.70
2018-05-02T05:08:34.133Z,90.70
2018-05-02T05:11:10.080Z,90.80
2018-05-02T05:13:39.101Z,90.40
2018-05-02T05:16:15.703Z,88.20
2018-05-02T05:18:45.720Z,87.00
2018-05-02T05:21:14.479Z,87.40
2018-05-02T05:23:43.214Z,87.30
2018-05-02T05:26:16.024Z,88.30
2018-05-02T05:31:21.507Z,88.90
2018-05-02T05:33:50.215Z,89.00
2018-05-02T05:36:19.976Z,88.80
2018-05-02T05:38:50.018Z,88.80
2018-05-02T05:41:22.286Z,90.10
2018-05-02T05:43:51.050Z,89.50
2018-05-02T05:46:23.754Z,89.30
2018-05-02T05:48:52.495Z,89.20
2018-05-02T05:51:25.060Z,89.00
2018-05-02T05:53:54.206Z,89.40
2018-05-02T05:56:27.911Z,88.80
2018-05-02T05:58:56.688Z,88.80
2018-05-02T06:01:32.720Z,88.30
2018-05-02T06:04:01.553Z,88.70
2018-05-02T06:06:32.309Z,87.80
2018-05-02T06:09:02.141Z,86.90
2018-05-02T06:11:34.541Z,86.90
2018-05-02T06:14:03.278Z,87.60
2018-05-02T06:16:36.616Z,88.80
2018-05-02T06:19:05.587Z,89.50
2018-05-02T06:21:41.942Z,87.10
2018-05-02T06:24:11.801Z,85.50
2018-05-02T06:26:41.416Z,85.40
2018-05-02T06:29:10.264Z,85.40
2018-05-02T06:31:47.050Z,85.20
2018-05-02T06:34:15.694Z,85.70
2018-05-02T06:36:45.855Z,84.60
2018-05-02T06:39:15.303Z,82.20
2018-05-02T06:41:51.617Z,81.50
2018-05-02T06:44:20.468Z,81.90
2018-05-02T06:46:51.169Z,81.60
2018-05-02T06:49:20.105Z,81.60
2018-05-02T06:51:56.852Z,82.20
2018-05-02T06:54:26.976Z,81.80
2018-05-02T06:56:56.647Z,80.80
2018-05-02T06:59:25.514Z,80.80
2018-05-02T07:02:01.569Z,80.40
2018-05-02T07:04:30.589Z,80.50
2018-05-02T07:07:01.040Z,80.20
2018-05-02T07:09:30.499Z,79.20
2018-05-02T07:12:07.280Z,78.70
2018-05-02T07:17:12.808Z,79.60
2018-05-02T07:19:42.466Z,80.90
2018-05-02T07:22:11.348Z,80.80
2018-05-02T07:24:40.587Z,79.80
2018-05-02T07:27:13.097Z,79.60
2018-05-02T07:29:41.876Z,77.70
2018-05-02T07:32:14.586Z,79.00
2018-05-02T07:34:43.366Z,78.80
2018-05-02T07:37:22.717Z,78.10
2018-05-02T07:39:57.742Z,78.10
2018-05-02T07:42:28.691Z,78.60
2018-05-02T07:44:57.570Z,78.40
2018-05-02T07:47:26.470Z,78.30
2018-05-02T07:49:55.248Z,78.30
2018-05-02T07:52:24.342Z,77.10
2018-05-02T07:54:53.222Z,77.00
2018-05-02T07:57:25.663Z,78.60
2018-05-02T07:59:55.607Z,75.90
2018-05-02T08:02:28.010Z,75.90
2018-05-02T08:04:56.816Z,75.90
2018-05-02T08:07:33.362Z,74.90
2018-05-02T08:10:02.188Z,74.40
2018-05-02T08:12:32.916Z,75.30
2018-05-02T08:15:02.582Z,75.00
2018-05-02T08:17:35.258Z,75.00
2018-05-02T08:20:04.650Z,74.10
2018-05-02T08:22:39.307Z,72.10
2018-05-02T08:25:08.179Z,73.40
2018-05-02T08:27:44.661Z,71.90
2018-05-02T08:30:13.500Z,72.90
2018-05-02T08:32:43.884Z,73.60
2018-05-02T08:35:12.711Z,71.70
2018-05-02T08:37:49.560Z,74.40
2018-05-02T08:40:19.238Z,70.40
2018-05-02T08:42:50.243Z,70.20
2018-05-02T08:45:19.121Z,70.30
2018-05-02T08:47:55.461Z,70.50
2018-05-02T08:50:24.253Z,71.00
2018-05-02T08:52:54.921Z,68.50
2018-05-02T08:55:23.749Z,68.50
2018-05-02T08:57:57.705Z,66.50
2018-05-02T09:00:26.463Z,66.70
2018-05-02T09:05:43.624Z,69.10
2018-05-02T09:08:12.483Z,66.60
2018-05-02T09:10:41.308Z,69.40
2018-05-02T09:13:10.319Z,66.40
2018-05-02T09:15:39.171Z,61.90
2018-05-02T09:18:08.848Z,62.40
2018-05-02T09:20:37.998Z,62.40
2018-05-02T09:23:10.865Z,59.10
2018-05-02T09:25:39.776Z,59.90
2018-05-02T09:28:14.215Z,57.40
2018-05-02T09:30:43.074Z,57.40
2018-05-02T09:33:15.809Z,57.60
2018-05-02T09:35:44.628Z,56.60
2018-05-02T09:38:21.635Z,59.50
2018-05-02T09:40:51.174Z,65.20
2018-05-02T09:43:20.098Z,65.30
2018-05-02T09:45:49.740Z,57.30
2018-05-02T09:48:28.824Z,57.20
2018-05-02T09:50:58.440Z,54.90
2018-05-02T09:53:28.031Z,52.10
2018-05-02T09:55:58.130Z,52.10
2018-05-02T09:58:28.181Z,52.90
2018-05-02T10:00:57.843Z,51.90
2018-05-02T10:03:29.649Z,51.90
2018-05-02T10:05:58.601Z,55.70
2018-05-02T10:08:34.529Z,54.60
2018-05-02T10:11:03.369Z,55.90
2018-05-02T10:13:33.803Z,53.60
2018-05-02T10:16:03.394Z,50.10
2018-05-02T10:18:39.648Z,50.10
2018-05-02T10:21:08.445Z,52.50
2018-05-02T10:23:37.529Z,56.50
2018-05-02T10:26:06.417Z,52.30
2018-05-02T10:28:42.598Z,51.60
2018-05-02T10:31:12.134Z,49.80
2018-05-02T10:33:44.339Z,49.70
2018-05-02T10:36:13.861Z,50.30
2018-05-02T10:38:45.718Z,52.60
2018-05-02T10:41:14.876Z,48.70
2018-05-02T10:43:48.009Z,50.70
2018-05-02T10:46:16.873Z,53.20
2018-05-02T10:48:50.949Z,48.20
2018-05-02T10:51:21.089Z,47.10
2018-05-02T10:56:12.816Z,48.60
2018-05-02T10:58:41.778Z,48.50
2018-05-02T11:01:10.615Z,51.10
2018-05-02T11:03:39.822Z,48.40
2018-05-02T11:06:08.766Z,49.80
2018-05-02T11:08:37.725Z,46.40
2018-05-02T11:11:07.627Z,44.30
2018-05-02T11:13:36.563Z,44.30
2018-05-02T11:16:06.240Z,46.00
2018-05-02T11:18:35.478Z,46.10
2018-05-02T11:21:11.443Z,48.60
2018-05-02T11:23:40.557Z,47.30
2018-05-02T11:26:12.728Z,45.50
2018-05-02T11:28:41.954Z,41.50
2018-05-02T11:31:18.606Z,42.40
2018-05-02T11:33:47.772Z,42.00
2018-05-02T11:36:17.393Z,42.30
2018-05-02T11:38:46.197Z,42.30
2018-05-02T11:41:19.921Z,44.30
2018-05-02T11:43:48.689Z,44.80
2018-05-02T11:46:26.550Z,42.80
2018-05-02T11:48:56.717Z,41.60
2018-05-02T11:51:25.567Z,43.90
2018-05-02T11:53:54.491Z,40.30
2018-05-02T11:56:25.524Z,41.20
2018-05-02T11:58:54.467Z,40.60
2018-05-02T12:01:30.674Z,42.60
2018-05-02T12:03:59.781Z,42.60
2018-05-02T12:06:31.880Z,40.40
2018-05-02T12:09:04.116Z,41.60
2018-05-02T12:11:33.211Z,41.50
2018-05-02T12:14:02.085Z,41.60
2018-05-02T12:16:31.720Z,42.40
2018-05-02T12:19:00.800Z,47.90
2018-05-02T12:21:36.807Z,43.20
2018-05-02T12:24:05.708Z,43.10
2018-05-02T12:26:38.217Z,40.90
2018-05-02T12:29:07.092Z,41.50
2018-05-02T12:31:40.049Z,44.80
2018-05-02T12:34:08.963Z,40.50
2018-05-02T12:36:41.557Z,40.70
2018-05-02T12:39:10.723Z,42.90
2018-05-02T12:41:46.699Z,41.10
2018-05-02T12:44:15.571Z,40.40
2018-05-02T12:46:48.353Z,39.20
2018-05-02T12:49:17.142Z,41.40
2018-05-02T12:51:53.793Z,41.10
2018-05-02T12:54:22.695Z,38.80
2018-05-02T12:56:51.617Z,43.60
2018-05-02T12:59:20.688Z,41.00
2018-05-02T13:01:56.548Z,40.40
2018-05-02T13:04:25.458Z,42.70
2018-05-02T13:06:56.659Z,40.30
2018-05-02T13:09:25.475Z,40.90
2018-05-02T13:12:01.965Z,39.20
2018-05-02T13:14:31.586Z,40.70
2018-05-02T13:17:01.871Z,40.70
2018-05-02T13:19:30.947Z,40.30
2018-05-02T13:22:07.189Z,41.30
2018-05-02T13:24:35.935Z,41.10
2018-05-02T13:27:08.896Z,42.00
2018-05-02T13:29:37.736Z,42.40
2018-05-02T13:32:13.942Z,42.20
2018-05-02T13:34:42.982Z,44.20
2018-05-02T13:37:13.510Z,43.30
2018-05-02T13:39:43.165Z,44.30
2018-05-02T13:42:19.494Z,44.30
2018-05-02T13:44:49.165Z,42.10
2018-05-02T13:47:18.188Z,42.10
2018-05-02T13:49:48.082Z,45.80
2018-05-02T13:52:20.281Z,45.70
2018-05-02T13:54:49.118Z,42.70
2018-05-02T13:57:25.496Z,45.40
2018-05-02T13:59:54.421Z,43.30
2018-05-02T14:02:24.262Z,41.70
2018-05-02T14:04:53.409Z,41.70
2018-05-02T14:07:29.317Z,44.70
2018-05-02T14:09:58.298Z,43.60
2018-05-02T14:12:28.020Z,44.30
2018-05-02T14:14:56.861Z,43.90
2018-05-02T14:17:33.994Z,42.50
2018-05-02T14:20:03.143Z,42.50
2018-05-02T14:22:33.206Z,47.40
2018-05-02T14:25:02.017Z,47.40
2018-05-02T14:27:35.257Z,44.20
2018-05-02T14:30:04.221Z,42.30
2018-05-02T14:32:40.722Z,43.90
2018-05-02T14:35:09.993Z,45.40
2018-05-02T14:37:42.245Z,44.70
2018-05-02T14:40:11.568Z,44.60
2018-05-02T14:42:42.996Z,43.40
2018-05-02T14:45:12.639Z,42.90
2018-05-02T14:47:45.341Z,42.90
2018-05-02T14:50:14.249Z,43.00
2018-05-02T14:52:51.252Z,43.00
2018-05-02T14:55:20.138Z,44.80
2018-05-02T14:57:50.392Z,43.70
2018-05-02T15:00:20.620Z,45.00
2018-05-02T15:02:56.561Z,46.00
2018-05-02T15:05:26.342Z,45.40
2018-05-02T15:07:55.368Z,45.40
2018-05-02T15:10:25.169Z,46.30
2018-05-02T15:12:57.848Z,44.10
2018-05-02T15:15:26.794Z,44.10
2018-05-02T15:18:01.308Z,44.70
2018-05-02T15:20:30.165Z,44.80
2018-05-02T15:23:06.509Z,43.90
2018-05-02T15:25:36.208Z,43.70
2018-05-02T15:28:06.110Z,43.70
2018-05-02T15:30:36.117Z,43.40
2018-05-02T15:33:12.332Z,43.10
2018-05-02T15:35:41.322Z,44.00
2018-05-02T15:38:11.637Z,44.50
2018-05-02T15:40:41.341Z,44.10
2018-05-02T15:43:14.408Z,43.40
2018-05-02T15:45:45.290Z,43.40
2018-05-02T15:48:17.561Z,43.80
2018-05-02T15:50:46.684Z,44.40
2018-05-02T15:53:18.659Z,45.30
2018-05-02T15:55:48.097Z,45.20
2018-05-02T15:58:26.569Z,45.30
2018-05-02T16:00:58.248Z,45.30
2018-05-02T16:03:27.344Z,45.50
2018-05-02T16:05:56.620Z,45.70
2018-05-02T16:08:25.737Z,46.20
2018-05-02T16:10:54.570Z,45.90
2018-05-02T16:13:27.293Z,45.90
2018-05-02T16:15:56.950Z,48.10
2018-05-02T16:18:29.590Z,48.30
2018-05-02T16:20:59.619Z,47.40
2018-05-02T16:23:30.992Z,49.00
2018-05-02T16:26:00.115Z,48.90
2018-05-02T16:28:33.398Z,48.50
2018-05-02T16:31:02.399Z,46.90
2018-05-02T16:33:34.981Z,48.50
2018-05-02T16:36:03.876Z,49.30
2018-05-02T16:38:37.758Z,49.00
2018-05-02T16:41:06.676Z,49.30
2018-05-02T16:43:39.954Z,49.00
2018-05-02T16:46:09.134Z,48.00
2018-05-02T16:48:45.899Z,48.50
2018-05-02T16:51:14.878Z,48.10
2018-05-02T16:53:44.474Z,49.00
2018-05-02T16:56:14.220Z,48.60
2018-05-02T16:58:46.992Z,48.60
2018-05-02T17:01:21.085Z,49.20
2018-05-02T17:06:25.613Z,49.90
2018-05-02T17:08:55.828Z,49.70
2018-05-02T17:11:25.624Z,49.20
2018-05-02T17:13:54.563Z,49.30
2018-05-02T17:16:24.722Z,48.60
2018-05-02T17:18:57.409Z,49.10
2018-05-02T17:21:26.283Z,51.00
2018-05-02T17:24:03.146Z,49.90
2018-05-02T17:26:32.160Z,50.30
2018-05-02T17:29:04.223Z,49.90
2018-05-02T17:31:34.404Z,50.80
2018-05-02T17:34:05.194Z,50.80
2018-05-02T17:36:34.117Z,52.40
2018-05-02T17:39:10.120Z,52.90
2018-05-02T17:41:39.199Z,53.10
2018-05-02T17:44:09.699Z,53.70
2018-05-02T17:46:39.025Z,53.10
2018-05-02T17:49:16.045Z,53.40
2018-05-02T17:51:45.889Z,53.90
2018-05-02T17:54:14.810Z,53.40
2018-05-02T17:56:43.685Z,56.90
2018-05-02T17:59:18.041Z,52.70
2018-05-02T18:01:47.652Z,56.00
2018-05-02T18:04:20.494Z,56.00
2018-05-02T18:06:51.620Z,57.00
2018-05-02T18:09:21.518Z,53.90
2018-05-02T18:11:51.173Z,52.40
2018-05-02T18:14:27.753Z,52.30
2018-05-02T18:16:56.844Z,55.30
2018-05-02T18:19:26.528Z,53.60
2018-05-02T18:21:55.930Z,53.60
2018-05-02T18:24:32.508Z,55.00
2018-05-02T18:27:01.888Z,56.50
2018-05-02T18:29:32.005Z,60.00
2018-05-02T18:32:01.112Z,57.90
2018-05-02T18:34:34.099Z,57.50
2018-05-02T18:37:03.245Z,60.30
2018-05-02T18:39:37.936Z,57.00
2018-05-02T18:42:07.348Z,57.00
2018-05-02T18:44:39.881Z,57.70
2018-05-02T18:47:09.933Z,57.70
2018-05-02T18:49:42.104Z,57.70
2018-05-02T18:52:11.156Z,58.60
2018-05-02T18:54:42.863Z,62.30
2018-05-02T18:57:11.867Z,59.50
2018-05-02T18:59:46.350Z,59.30
2018-05-02T19:02:17.264Z,58.60
2018-05-02T19:04:47.550Z,58.50
2018-05-02T19:07:16.740Z,62.40
2018-05-02T19:09:50.900Z,61.90
2018-05-02T19:12:20.110Z,62.40
2018-05-02T19:14:53.846Z,60.70
2018-05-02T19:17:23.917Z,62.60
2018-05-02T19:20:01.264Z,62.60
2018-05-02T19:22:32.079Z,63.70
2018-05-02T19:25:06.186Z,63.60
2018-05-02T19:27:36.579Z,63.80
2018-05-02T19:30:05.590Z,64.70
2018-05-02T19:34:47.799Z,66.00
2018-05-02T19:37:18.712Z,65.90
2018-05-02T19:39:54.055Z,68.40
2018-05-02T19:44:30.147Z,68.90
2018-05-02T19:49:34.627Z,68.30
2018-05-02T19:52:10.034Z,68.50
2018-05-02T19:54:40.672Z,67.10
2018-05-02T19:57:16.841Z,69.10
2018-05-02T19:59:46.132Z,69.40
2018-05-02T20:03:21.581Z,69.00
2018-05-02T20:05:52.392Z,69.00
2018-05-02T20:08:25.764Z,68.90
2018-05-02T20:13:03.186Z,69.00
2018-05-02T20:15:32.411Z,69.00
2018-05-02T20:18:01.553Z,68.00
2018-05-02T20:20:30.773Z,67.90
2018-05-02T20:23:00.611Z,69.80
2018-05-02T20:25:31.430Z,69.90
2018-05-02T20:28:00.738Z,71.70
2018-05-02T20:30:29.708Z,69.60
2018-05-02T20:32:59.102Z,71.10
2018-05-02T20:35:29.539Z,69.70
2018-05-02T20:37:58.513Z,70.50
2018-05-02T20:40:32.988Z,69.90
2018-05-02T20:43:02.713Z,69.90
2018-05-02T20:45:33.473Z,69.10
2018-05-02T20:48:04.535Z,69.50
2018-05-02T20:50:37.467Z,69.50
2018-05-02T20:53:06.464Z,69.80
2018-05-02T20:55:38.380Z,70.30
2018-05-02T20:58:07.397Z,70.90
2018-05-02T21:00:40.484Z,70.30
2018-05-02T21:03:10.827Z,72.40
2018-05-02T21:05:43.778Z,71.10
2018-05-02T21:08:13.547Z,71.40
2018-05-02T21:10:46.516Z,71.60
2018-05-02T21:13:17.346Z,72.20
2018-05-02T21:15:48.024Z,71.80
2018-05-02T21:18:19.604Z,73.90
2018-05-02T21:20:49.978Z,73.80
2018-05-02T21:23:19.603Z,72.40
2018-05-02T21:25:56.849Z,73.10
2018-05-02T21:28:26.630Z,71.40
2018-05-02T21:30:58.030Z,73.90
2018-05-02T21:33:29.605Z,73.10
2018-05-02T21:36:01.205Z,74.30
2018-05-02T21:38:30.315Z,74.30
2018-05-02T21:41:00.577Z,72.60
2018-05-02T21:43:29.694Z,72.90
2018-05-02T21:46:07.091Z,73.20
2018-05-02T21:48:36.266Z,74.40
2018-05-02T21:51:06.330Z,74.10
2018-05-02T21:53:35.467Z,74.40
2018-05-02T21:56:13.987Z,75.40
2018-05-02T21:58:43.060Z,75.50
2018-05-02T22:01:13.536Z,74.80
2018-05-02T22:03:44.701Z,74.90
2018-05-02T22:06:14.656Z,75.40
2018-05-02T22:08:44.376Z,75.50
2018-05-02T22:11:22.067Z,75.40
2018-05-02T22:13:53.144Z,75.10
2018-05-02T22:16:22.978Z,75.10
2018-05-02T22:18:52.895Z,75.30
2018-05-02T22:21:24.392Z,76.20
2018-05-02T22:23:54.881Z,76.50
2018-05-02T22:26:25.018Z,76.50
2018-05-02T22:28:55.790Z,76.50
2018-05-02T22:31:26.187Z,75.80
2018-05-02T22:33:56.841Z,75.50
2018-05-02T22:36:27.340Z,75.40
2018-05-02T22:38:57.113Z,76.60
2018-05-02T22:41:32.921Z,76.60
2018-05-02T22:44:02.033Z,76.60
2018-05-02T22:46:31.482Z,78.70
2018-05-02T22:49:01.173Z,77.70
2018-05-02T22:51:38.088Z,77.80
2018-05-02T22:54:08.078Z,76.30
2018-05-02T22:56:37.344Z,76.30
2018-05-02T22:59:06.634Z,76.60
2018-05-02T23:01:43.423Z,77.90
2018-05-02T23:04:12.561Z,76.80
2018-05-02T23:06:43.876Z,77.90
2018-05-02T23:09:12.800Z,77.90
2018-05-02T23:11:44.202Z,78.90
2018-05-02T23:14:13.235Z,78.80
2018-05-02T23:16:49.445Z,78.80
2018-05-02T23:19:18.445Z,79.60
2018-05-02T23:21:49.123Z,81.30
2018-05-02T23:24:18.105Z,80.30
2018-05-02T23:26:54.952Z,81.90
2018-05-02T23:29:23.950Z,81.80
2018-05-02T23:31:54.420Z,81.60
2018-05-02T23:34:24.362Z,83.10
2018-05-02T23:36:56.397Z,83.10
2018-05-02T23:39:26.124Z,84.00
2018-05-02T23:41:58.910Z,84.30
2018-05-02T23:44:28.413Z,84.40
2018-05-02T23:47:05.283Z,85.50
2018-05-02T23:49:34.451Z,85.50
2018-05-02T23:52:04.084Z,86.40
2018-05-02T23:54:33.319Z,86.10
2018-05-02T23:57:10.133Z,87.60
2018-05-02T23:59:39.793Z,87.60
